sensor_id;sensor_type;location;lat;lon;timestamp;pressure;altitude;pressure_sealevel;temperature;humidity
7297;BME280;40758;54.038;11.684;2022-12-19T00:00:45;102125.53;;;-4.32;100.00
7297;BME280;40758;54.038;11.684;2022-12-19T00:03:15;102127.28;;;-4.28;100.00
7297;BME280;40758;54.038;11.684;2022-12-19T00:06:01;102115.91;;;-4.38;100.00
7297;BME280;40758;54.038;11.684;2022-12-19T00:08:51;102115.03;;;-4.47;100.00
7297;BME280;40758;54.038;11.684;2022-12-19T00:11:52;102122.00;;;-4.56;100.00
7297;BME280;40758;54.038;11.684;2022-12-19T00:14:35;102115.91;;;-4.58;100.00
7297;BME280;40758;54.038;11.684;2022-12-19T00:17:05;102116.78;;;-4.65;100.00
7297;BME280;40758;54.038;11.684;2022-12-19T00:19:37;102110.66;;;-4.65;100.00
7297;BME280;40758;54.038;11.684;2022-12-19T00:22:24;102092.28;;;-4.55;100.00
7297;BME280;40758;54.038;11.684;2022-12-19T00:25:01;102092.28;;;-4.49;100.00
7297;BME280;40758;54.038;11.684;2022-12-19T00:27:48;102075.69;;;-4.44;100.00
7297;BME280;40758;54.038;11.684;2022-12-19T00:30:17;102053.81;;;-4.36;100.00
7297;BME280;40758;54.038;11.684;2022-12-19T00:32:57;102058.19;;;-4.36;100.00
7297;BME280;40758;54.038;11.684;2022-12-19T00:35:41;102041.59;;;-4.41;100.00
7297;BME280;40758;54.038;11.684;2022-12-19T00:38:10;102064.31;;;-4.40;100.00
7297;BME280;40758;54.038;11.684;2022-12-19T00:40:40;102051.19;;;-4.40;100.00
7297;BME280;40758;54.038;11.684;2022-12-19T00:43:09;102044.22;;;-4.40;100.00
7297;BME280;40758;54.038;11.684;2022-12-19T00:45:38;102036.34;;;-4.44;100.00
7297;BME280;40758;54.038;11.684;2022-12-19T00:48:08;102045.09;;;-4.39;100.00
7297;BME280;40758;54.038;11.684;2022-12-19T00:50:39;102029.34;;;-4.39;100.00
7297;BME280;40758;54.038;11.684;2022-12-19T00:53:08;102017.97;;;-4.41;100.00
7297;BME280;40758;54.038;11.684;2022-12-19T00:55:38;102025.84;;;-4.41;100.00
7297;BME280;40758;54.038;11.684;2022-12-19T00:58:07;102032.84;;;-4.34;100.00
7297;BME280;40758;54.038;11.684;2022-12-19T01:00:36;102024.97;;;-4.27;100.00
7297;BME280;40758;54.038;11.684;2022-12-19T01:03:11;102021.44;;;-4.24;100.00
7297;BME280;40758;54.038;11.684;2022-12-19T01:05:40;102002.19;;;-4.16;100.00
7297;BME280;40758;54.038;11.684;2022-12-19T01:08:09;102031.06;;;-4.20;100.00
7297;BME280;40758;54.038;11.684;2022-12-19T01:10:45;102017.94;;;-4.16;100.00
7297;BME280;40758;54.038;11.684;2022-12-19T01:13:30;102030.16;;;-4.12;100.00
7297;BME280;40758;54.038;11.684;2022-12-19T01:16:02;102038.94;;;-4.16;100.00
7297;BME280;40758;54.038;11.684;2022-12-19T01:18:33;102031.94;;;-4.20;100.00
7297;BME280;40758;54.038;11.684;2022-12-19T01:21:05;102045.94;;;-4.24;100.00
7297;BME280;40758;54.038;11.684;2022-12-19T01:23:35;102038.06;;;-4.21;100.00
7297;BME280;40758;54.038;11.684;2022-12-19T01:26:05;102049.44;;;-4.23;100.00
7297;BME280;40758;54.038;11.684;2022-12-19T01:28:33;102047.66;;;-4.26;100.00
7297;BME280;40758;54.038;11.684;2022-12-19T01:31:05;102049.44;;;-4.29;100.00
7297;BME280;40758;54.038;11.684;2022-12-19T01:33:41;102048.56;;;-4.28;100.00
7297;BME280;40758;54.038;11.684;2022-12-19T01:36:15;102036.31;;;-4.28;100.00
7297;BME280;40758;54.038;11.684;2022-12-19T01:38:47;102038.06;;;-4.37;100.00
7297;BME280;40758;54.038;11.684;2022-12-19T01:41:21;102026.72;;;-4.39;100.00
7297;BME280;40758;54.038;11.684;2022-12-19T01:43:58;102020.59;;;-4.46;100.00
7297;BME280;40758;54.038;11.684;2022-12-19T01:46:33;102025.84;;;-4.38;100.00
7297;BME280;40758;54.038;11.684;2022-12-19T01:49:11;102020.59;;;-4.41;100.00
7297;BME280;40758;54.038;11.684;2022-12-19T01:51:47;102010.13;;;-4.44;100.00
7297;BME280;40758;54.038;11.684;2022-12-19T01:54:20;102010.13;;;-4.38;100.00
7297;BME280;40758;54.038;11.684;2022-12-19T01:56:57;101998.75;;;-4.39;100.00
7297;BME280;40758;54.038;11.684;2022-12-19T01:59:33;102004.84;;;-4.35;100.00
7297;BME280;40758;54.038;11.684;2022-12-19T02:02:13;101979.47;;;-4.38;100.00
7297;BME280;40758;54.038;11.684;2022-12-19T02:04:46;101976.84;;;-4.36;100.00
7297;BME280;40758;54.038;11.684;2022-12-19T02:07:17;101969.88;;;-4.39;100.00
7297;BME280;40758;54.038;11.684;2022-12-19T02:09:51;101957.63;;;-4.37;100.00
7297;BME280;40758;54.038;11.684;2022-12-19T02:12:28;101955.00;;;-4.37;100.00
7297;BME280;40758;54.038;11.684;2022-12-19T02:15:00;101955.84;;;-4.32;100.00
7297;BME280;40758;54.038;11.684;2022-12-19T02:17:41;101947.09;;;-4.29;100.00
7297;BME280;40758;54.038;11.684;2022-12-19T02:20:50;101956.72;;;-4.21;100.00
7297;BME280;40758;54.038;11.684;2022-12-19T02:24:21;101957.59;;;-4.23;100.00
7297;BME280;40758;54.038;11.684;2022-12-19T02:30:12;101955.81;;;-4.18;100.00
7297;BME280;40758;54.038;11.684;2022-12-19T02:32:59;101943.53;;;-4.10;100.00
7297;BME280;40758;54.038;11.684;2022-12-19T02:35:38;101935.66;;;-4.04;100.00
7297;BME280;40758;54.038;11.684;2022-12-19T02:38:20;101940.03;;;-4.06;100.00
7297;BME280;40758;54.038;11.684;2022-12-19T02:41:07;101935.66;;;-4.02;100.00
7297;BME280;40758;54.038;11.684;2022-12-19T02:43:43;101944.38;;;-3.96;100.00
7297;BME280;40758;54.038;11.684;2022-12-19T02:46:29;101943.53;;;-4.04;100.00
7297;BME280;40758;54.038;11.684;2022-12-19T02:49:00;101939.13;;;-3.97;100.00
7297;BME280;40758;54.038;11.684;2022-12-19T02:51:30;101928.63;;;-3.97;100.00
7297;BME280;40758;54.038;11.684;2022-12-19T02:53:59;101934.75;;;-4.00;100.00
7297;BME280;40758;54.038;11.684;2022-12-19T02:56:45;101929.50;;;-3.97;100.00
7297;BME280;40758;54.038;11.684;2022-12-19T02:59:46;101924.25;;;-3.98;100.00
7297;BME280;40758;54.038;11.684;2022-12-19T03:02:39;101926.88;;;-3.98;100.00
7297;BME280;40758;54.038;11.684;2022-12-19T03:05:37;101918.16;;;-4.05;100.00
7297;BME280;40758;54.038;11.684;2022-12-19T03:08:20;101926.03;;;-4.07;100.00
7297;BME280;40758;54.038;11.684;2022-12-19T03:10:58;101925.19;;;-4.10;100.00
7297;BME280;40758;54.038;11.684;2022-12-19T03:13:31;101923.44;;;-4.10;100.00
7297;BME280;40758;54.038;11.684;2022-12-19T03:16:03;101928.66;;;-4.13;100.00
7297;BME280;40758;54.038;11.684;2022-12-19T03:18:35;101919.97;;;-4.15;100.00
7297;BME280;40758;54.038;11.684;2022-12-19T03:21:13;101910.31;;;-4.13;100.00
7297;BME280;40758;54.038;11.684;2022-12-19T03:23:44;101906.81;;;-4.12;100.00
7297;BME280;40758;54.038;11.684;2022-12-19T03:26:18;101899.84;;;-4.14;100.00
7297;BME280;40758;54.038;11.684;2022-12-19T03:28:52;101901.59;;;-4.15;100.00
7297;BME280;40758;54.038;11.684;2022-12-19T03:31:27;101890.19;;;-4.07;100.00
7297;BME280;40758;54.038;11.684;2022-12-19T03:34:00;101900.63;;;-3.98;100.00
7297;BME280;40758;54.038;11.684;2022-12-19T03:36:44;101903.25;;;-3.97;100.00
7297;BME280;40758;54.038;11.684;2022-12-19T03:39:15;101910.25;;;-3.96;100.00
7297;BME280;40758;54.038;11.684;2022-12-19T03:41:47;101912.84;;;-3.93;100.00
7297;BME280;40758;54.038;11.684;2022-12-19T03:44:38;101911.97;;;-3.92;100.00
7297;BME280;40758;54.038;11.684;2022-12-19T03:47:16;101907.56;;;-3.88;100.00
7297;BME280;40758;54.038;11.684;2022-12-19T03:49:47;101912.84;;;-3.93;100.00
7297;BME280;40758;54.038;11.684;2022-12-19T03:52:28;101910.19;;;-3.85;100.00
7297;BME280;40758;54.038;11.684;2022-12-19T03:55:16;101904.06;;;-3.84;100.00
7297;BME280;40758;54.038;11.684;2022-12-19T03:57:52;101904.06;;;-3.83;100.00
7297;BME280;40758;54.038;11.684;2022-12-19T04:00:26;101894.34;;;-3.72;100.00
7297;BME280;40758;54.038;11.684;2022-12-19T04:02:58;101893.47;;;-3.72;100.00
7297;BME280;40758;54.038;11.684;2022-12-19T04:05:29;101903.94;;;-3.69;100.00
7297;BME280;40758;54.038;11.684;2022-12-19T04:08:04;101888.22;;;-3.72;100.00
7297;BME280;40758;54.038;11.684;2022-12-19T04:10:42;101880.31;;;-3.69;100.00
7297;BME280;40758;54.038;11.684;2022-12-19T04:13:18;101870.69;;;-3.69;100.00
7297;BME280;40758;54.038;11.684;2022-12-19T04:15:58;101878.50;;;-3.62;100.00
7297;BME280;40758;54.038;11.684;2022-12-19T04:18:27;101864.50;;;-3.61;100.00
7297;BME280;40758;54.038;11.684;2022-12-19T04:21:02;101862.75;;;-3.62;100.00
7297;BME280;40758;54.038;11.684;2022-12-19T04:23:42;101866.25;;;-3.59;100.00
7297;BME280;40758;54.038;11.684;2022-12-19T04:26:18;101850.47;;;-3.57;100.00
7297;BME280;40758;54.038;11.684;2022-12-19T04:28:57;101834.69;;;-3.57;100.00
7297;BME280;40758;54.038;11.684;2022-12-19T04:31:27;101832.06;;;-3.54;100.00
7297;BME280;40758;54.038;11.684;2022-12-19T04:33:59;101843.44;;;-3.52;100.00
7297;BME280;40758;54.038;11.684;2022-12-19T04:36:27;101832.06;;;-3.56;100.00
7297;BME280;40758;54.038;11.684;2022-12-19T04:38:59;101829.44;;;-3.57;100.00
7297;BME280;40758;54.038;11.684;2022-12-19T04:41:28;101827.69;;;-3.55;100.00
7297;BME280;40758;54.038;11.684;2022-12-19T04:44:03;101812.81;;;-3.55;100.00
7297;BME280;40758;54.038;11.684;2022-12-19T04:46:33;101820.63;;;-3.50;100.00
7297;BME280;40758;54.038;11.684;2022-12-19T04:49:03;101810.16;;;-3.53;100.00
7297;BME280;40758;54.038;11.684;2022-12-19T04:51:32;101802.22;;;-3.46;100.00
7297;BME280;40758;54.038;11.684;2022-12-19T04:54:02;101793.47;;;-3.46;100.00
7297;BME280;40758;54.038;11.684;2022-12-19T04:56:34;101787.31;;;-3.45;100.00
7297;BME280;40758;54.038;11.684;2022-12-19T04:59:02;101785.66;;;-3.54;100.00
7297;BME280;40758;54.038;11.684;2022-12-19T05:01:31;101773.34;;;-3.47;100.00
7297;BME280;40758;54.038;11.684;2022-12-19T05:04:11;101766.28;;;-3.45;100.00
7297;BME280;40758;54.038;11.684;2022-12-19T05:06:44;101762.88;;;-3.53;100.00
7297;BME280;40758;54.038;11.684;2022-12-19T05:09:26;101763.75;;;-3.53;100.00
7297;BME280;40758;54.038;11.684;2022-12-19T05:12:05;101775.09;;;-3.49;100.00
7297;BME280;40758;54.038;11.684;2022-12-19T05:14:34;101774.16;;;-3.42;100.00
7297;BME280;40758;54.038;11.684;2022-12-19T05:17:04;101759.25;;;-3.40;100.00
7297;BME280;40758;54.038;11.684;2022-12-19T05:19:46;101750.44;;;-3.36;100.00
7297;BME280;40758;54.038;11.684;2022-12-19T05:22:14;101733.81;;;-3.38;100.00
7297;BME280;40758;54.038;11.684;2022-12-19T05:24:45;101734.75;;;-3.42;100.00
7297;BME280;40758;54.038;11.684;2022-12-19T05:27:13;101736.50;;;-3.40;100.00
7297;BME280;40758;54.038;11.684;2022-12-19T05:29:50;101741.69;;;-3.37;100.00
7297;BME280;40758;54.038;11.684;2022-12-19T05:32:25;101735.50;;;-3.30;100.00
7297;BME280;40758;54.038;11.684;2022-12-19T05:34:57;101738.94;;;-3.24;100.00
7297;BME280;40758;54.038;11.684;2022-12-19T05:37:35;101718.78;;;-3.22;100.00
7297;BME280;40758;54.038;11.684;2022-12-19T05:40:11;101718.78;;;-3.21;100.00
7297;BME280;40758;54.038;11.684;2022-12-19T05:42:43;101724.03;;;-3.22;100.00
7297;BME280;40758;54.038;11.684;2022-12-19T05:45:12;101709.94;;;-3.17;100.00
7297;BME280;40758;54.038;11.684;2022-12-19T05:47:41;101711.69;;;-3.16;100.00
7297;BME280;40758;54.038;11.684;2022-12-19T05:50:13;101710.75;;;-3.12;100.00
7297;BME280;40758;54.038;11.684;2022-12-19T05:52:43;101710.75;;;-3.12;100.00
7297;BME280;40758;54.038;11.684;2022-12-19T05:55:13;101720.31;;;-3.05;100.00
7297;BME280;40758;54.038;11.684;2022-12-19T05:57:45;101707.19;;;-3.06;100.00
7297;BME280;40758;54.038;11.684;2022-12-19T06:00:15;101699.31;;;-3.08;100.00
7297;BME280;40758;54.038;11.684;2022-12-19T06:02:48;101692.28;;;-3.03;100.00
7297;BME280;40758;54.038;11.684;2022-12-19T06:05:17;101682.53;;;-2.96;100.00
7297;BME280;40758;54.038;11.684;2022-12-19T06:07:46;101688.69;;;-2.99;100.00
7297;BME280;40758;54.038;11.684;2022-12-19T06:10:16;101690.41;;;-2.95;100.00
7297;BME280;40758;54.038;11.684;2022-12-19T06:12:45;101686.84;;;-2.91;100.00
7297;BME280;40758;54.038;11.684;2022-12-19T06:15:15;101692.06;;;-2.89;100.00
7297;BME280;40758;54.038;11.684;2022-12-19T06:18:01;101686.84;;;-2.91;100.00
7297;BME280;40758;54.038;11.684;2022-12-19T06:20:29;101692.13;;;-2.91;100.00
7297;BME280;40758;54.038;11.684;2022-12-19T06:22:58;101685.13;;;-2.95;100.00
7297;BME280;40758;54.038;11.684;2022-12-19T06:25:29;101686.94;;;-2.97;100.00
7297;BME280;40758;54.038;11.684;2022-12-19T06:28:01;101676.44;;;-2.98;100.00
7297;BME280;40758;54.038;11.684;2022-12-19T06:30:30;101671.19;;;-3.00;100.00
7297;BME280;40758;54.038;11.684;2022-12-19T06:33:00;101671.19;;;-3.00;100.00
7297;BME280;40758;54.038;11.684;2022-12-19T06:35:29;101673.81;;;-3.01;100.00
7297;BME280;40758;54.038;11.684;2022-12-19T06:37:58;101674.69;;;-2.99;100.00
7297;BME280;40758;54.038;11.684;2022-12-19T06:40:29;101679.06;;;-2.98;100.00
7297;BME280;40758;54.038;11.684;2022-12-19T06:43:13;101670.22;;;-2.94;100.00
7297;BME280;40758;54.038;11.684;2022-12-19T06:45:44;101675.50;;;-2.94;100.00
7297;BME280;40758;54.038;11.684;2022-12-19T06:48:15;101672.00;;;-2.96;100.00
7297;BME280;40758;54.038;11.684;2022-12-19T06:50:44;101668.31;;;-2.83;100.00
7297;BME280;40758;54.038;11.684;2022-12-19T06:53:13;101665.75;;;-2.88;100.00
7297;BME280;40758;54.038;11.684;2022-12-19T06:55:59;101668.31;;;-2.81;100.00
7297;BME280;40758;54.038;11.684;2022-12-19T06:58:28;101675.31;;;-2.79;100.00
7297;BME280;40758;54.038;11.684;2022-12-19T07:00:56;101665.66;;;-2.78;100.00
7297;BME280;40758;54.038;11.684;2022-12-19T07:03:39;101663.91;;;-2.79;100.00
7297;BME280;40758;54.038;11.684;2022-12-19T07:06:09;101670.84;;;-2.72;100.00
7297;BME280;40758;54.038;11.684;2022-12-19T07:08:39;101660.31;;;-2.72;100.00
7297;BME280;40758;54.038;11.684;2022-12-19T07:11:09;101666.44;;;-2.72;100.00
7297;BME280;40758;54.038;11.684;2022-12-19T07:13:41;101663.69;;;-2.64;100.00
7297;BME280;40758;54.038;11.684;2022-12-19T07:16:09;101669.03;;;-2.70;100.00
7297;BME280;40758;54.038;11.684;2022-12-19T07:18:41;101660.22;;;-2.66;100.00
7297;BME280;40758;54.038;11.684;2022-12-19T07:21:14;101655.84;;;-2.66;100.00
7297;BME280;40758;54.038;11.684;2022-12-19T07:23:45;101644.34;;;-2.60;100.00
7297;BME280;40758;54.038;11.684;2022-12-19T07:26:15;101634.72;;;-2.61;100.00
7297;BME280;40758;54.038;11.684;2022-12-19T07:28:44;101632.09;;;-2.61;100.00
7297;BME280;40758;54.038;11.684;2022-12-19T07:31:17;101641.75;;;-2.62;100.00
7297;BME280;40758;54.038;11.684;2022-12-19T07:33:45;101635.56;;;-2.59;100.00
7297;BME280;40758;54.038;11.684;2022-12-19T07:36:14;101637.38;;;-2.63;100.00
7297;BME280;40758;54.038;11.684;2022-12-19T07:38:43;101635.56;;;-2.59;100.00
7297;BME280;40758;54.038;11.684;2022-12-19T07:41:12;101645.16;;;-2.57;100.00
7297;BME280;40758;54.038;11.684;2022-12-19T07:43:42;101643.38;;;-2.55;100.00
7297;BME280;40758;54.038;11.684;2022-12-19T07:46:18;101646.84;;;-2.53;100.00
7297;BME280;40758;54.038;11.684;2022-12-19T07:48:48;101645.06;;;-2.51;100.00
7297;BME280;40758;54.038;11.684;2022-12-19T07:51:18;101654.69;;;-2.48;100.00
7297;BME280;40758;54.038;11.684;2022-12-19T07:53:50;101639.72;;;-2.45;100.00
7297;BME280;40758;54.038;11.684;2022-12-19T07:56:23;101645.84;;;-2.44;100.00
7297;BME280;40758;54.038;11.684;2022-12-19T07:58:57;101640.56;;;-2.41;100.00
7297;BME280;40758;54.038;11.684;2022-12-19T08:01:26;101637.00;;;-2.40;100.00
7297;BME280;40758;54.038;11.684;2022-12-19T08:03:56;101629.06;;;-2.35;100.00
7297;BME280;40758;54.038;11.684;2022-12-19T08:06:26;101626.44;;;-2.37;100.00
7297;BME280;40758;54.038;11.684;2022-12-19T08:08:57;101620.25;;;-2.34;100.00
7297;BME280;40758;54.038;11.684;2022-12-19T08:11:26;101616.69;;;-2.29;100.00
7297;BME280;40758;54.038;11.684;2022-12-19T08:14:03;101615.72;;;-2.25;100.00
7297;BME280;40758;54.038;11.684;2022-12-19T08:16:35;101593.78;;;-2.24;100.00
7297;BME280;40758;54.038;11.684;2022-12-19T08:19:26;101610.38;;;-2.22;100.00
7297;BME280;40758;54.038;11.684;2022-12-19T08:21:56;101598.16;;;-2.23;100.00
7297;BME280;40758;54.038;11.684;2022-12-19T08:24:28;101584.81;;;-2.15;100.00
7297;BME280;40758;54.038;11.684;2022-12-19T08:26:58;101585.69;;;-2.15;100.00
7297;BME280;40758;54.038;11.684;2022-12-19T08:29:29;101590.03;;;-2.11;100.00
7297;BME280;40758;54.038;11.684;2022-12-19T08:31:57;101602.22;;;-2.05;100.00
7297;BME280;40758;54.038;11.684;2022-12-19T08:34:26;101588.09;;;-2.01;100.00
7297;BME280;40758;54.038;11.684;2022-12-19T08:36:58;101585.25;;;-1.90;100.00
7297;BME280;40758;54.038;11.684;2022-12-19T08:39:27;101571.28;;;-1.92;100.00
7297;BME280;40758;54.038;11.684;2022-12-19T08:41:58;101572.03;;;-1.86;100.00
7297;BME280;40758;54.038;11.684;2022-12-19T08:44:28;101563.19;;;-1.85;100.00
7297;BME280;40758;54.038;11.684;2022-12-19T08:46:57;101555.22;;;-1.80;100.00
7297;BME280;40758;54.038;11.684;2022-12-19T08:49:26;101565.78;;;-1.80;100.00
7297;BME280;40758;54.038;11.684;2022-12-19T08:51:58;101552.41;;;-1.71;100.00
7297;BME280;40758;54.038;11.684;2022-12-19T08:54:27;101542.59;;;-1.63;100.00
7297;BME280;40758;54.038;11.684;2022-12-19T08:56:56;101547.78;;;-1.60;100.00
7297;BME280;40758;54.038;11.684;2022-12-19T08:59:28;101553.03;;;-1.58;100.00
7297;BME280;40758;54.038;11.684;2022-12-19T09:01:59;101546.63;;;-1.47;100.00
7297;BME280;40758;54.038;11.684;2022-12-19T09:04:29;101543.94;;;-1.44;100.00
7297;BME280;40758;54.038;11.684;2022-12-19T09:07:17;101533.31;;;-1.39;100.00
7297;BME280;40758;54.038;11.684;2022-12-19T09:09:47;101541.16;;;-1.36;100.00
7297;BME280;40758;54.038;11.684;2022-12-19T09:12:16;101543.41;;;-1.19;100.00
7297;BME280;40758;54.038;11.684;2022-12-19T09:14:46;101541.81;;;-1.27;100.00
7297;BME280;40758;54.038;11.684;2022-12-19T09:17:15;101540.78;;;-1.19;100.00
7297;BME280;40758;54.038;11.684;2022-12-19T09:19:44;101534.47;;;-1.12;100.00
7297;BME280;40758;54.038;11.684;2022-12-19T09:22:14;101534.47;;;-1.12;100.00
7297;BME280;40758;54.038;11.684;2022-12-19T09:24:44;101534.38;;;-1.08;100.00
7297;BME280;40758;54.038;11.684;2022-12-19T09:27:16;101529.94;;;-1.06;100.00
7297;BME280;40758;54.038;11.684;2022-12-19T09:29:47;101537.84;;;-1.06;100.00
7297;BME280;40758;54.038;11.684;2022-12-19T09:32:18;101523.66;;;-1.00;100.00
7297;BME280;40758;54.038;11.684;2022-12-19T09:34:46;101526.16;;;-0.94;100.00
7297;BME280;40758;54.038;11.684;2022-12-19T09:37:15;101514.84;;;-0.99;100.00
7297;BME280;40758;54.038;11.684;2022-12-19T09:39:45;101525.59;;;-1.08;100.00
7297;BME280;40758;54.038;11.684;2022-12-19T09:45:43;101514.97;;;-1.05;100.00
7297;BME280;40758;54.038;11.684;2022-12-19T09:48:24;101511.25;;;-0.97;100.00
7297;BME280;40758;54.038;11.684;2022-12-19T09:51:02;101497.03;;;-0.91;100.00
7297;BME280;40758;54.038;11.684;2022-12-19T09:53:54;101502.16;;;-0.85;100.00
7297;BME280;40758;54.038;11.684;2022-12-19T09:56:36;101503.03;;;-0.85;100.00
7297;BME280;40758;54.038;11.684;2022-12-19T09:59:27;101498.72;;;-0.87;100.00
7297;BME280;40758;54.038;11.684;2022-12-19T10:02:36;101494.22;;;-0.84;100.00
7297;BME280;40758;54.038;11.684;2022-12-19T10:05:29;101486.31;;;-0.84;100.00
7297;BME280;40758;54.038;11.684;2022-12-19T10:08:31;101495.97;;;-0.83;100.00
7297;BME280;40758;54.038;11.684;2022-12-19T10:11:40;101486.19;;;-0.79;100.00
7297;BME280;40758;54.038;11.684;2022-12-19T10:14:56;101484.31;;;-0.74;100.00
7297;BME280;40758;54.038;11.684;2022-12-19T10:18:10;101481.44;;;-0.65;100.00
7297;BME280;40758;54.038;11.684;2022-12-19T10:20:49;101467.25;;;-0.61;100.00
7297;BME280;40758;54.038;11.684;2022-12-19T10:23:55;101476.78;;;-0.55;100.00
7297;BME280;40758;54.038;11.684;2022-12-19T10:26:37;101470.41;;;-0.47;100.00
7297;BME280;40758;54.038;11.684;2022-12-19T10:30:02;101455.25;;;-0.38;100.00
7297;BME280;40758;54.038;11.684;2022-12-19T10:32:54;101454.38;;;-0.39;100.00
7297;BME280;40758;54.038;11.684;2022-12-19T10:35:34;101439.16;;;-0.29;100.00
7297;BME280;40758;54.038;11.684;2022-12-19T10:38:20;101459.16;;;-0.21;100.00
7297;BME280;40758;54.038;11.684;2022-12-19T10:41:13;101444.25;;;-0.23;100.00
7297;BME280;40758;54.038;11.684;2022-12-19T10:43:55;101434.34;;;-0.15;100.00
7297;BME280;40758;54.038;11.684;2022-12-19T10:46:38;101447.75;;;-0.23;100.00
7297;BME280;40758;54.038;11.684;2022-12-19T10:49:13;101442.25;;;-0.14;100.00
7297;BME280;40758;54.038;11.684;2022-12-19T10:51:56;101429.25;;;-0.21;100.00
7297;BME280;40758;54.038;11.684;2022-12-19T10:55:00;101435.03;;;-0.07;100.00
7297;BME280;40758;54.038;11.684;2022-12-19T10:57:30;101429.97;;;-0.16;100.00
7297;BME280;40758;54.038;11.684;2022-12-19T11:00:02;101425.44;;;-0.11;100.00
7297;BME280;40758;54.038;11.684;2022-12-19T11:02:41;101421.72;;;-0.04;100.00
7297;BME280;40758;54.038;11.684;2022-12-19T11:05:40;101420.78;;;-0.02;100.00
7297;BME280;40758;54.038;11.684;2022-12-19T11:08:30;101425.84;;;0.06;100.00
7297;BME280;40758;54.038;11.684;2022-12-19T11:11:13;101414.47;;;0.03;100.00
7297;BME280;40758;54.038;11.684;2022-12-19T11:14:20;101412.66;;;0.05;100.00
7297;BME280;40758;54.038;11.684;2022-12-19T11:17:34;101416.03;;;0.10;100.00
7297;BME280;40758;54.038;11.684;2022-12-19T11:20:31;101404.34;;;0.18;100.00
7297;BME280;40758;54.038;11.684;2022-12-19T11:23:21;101409.34;;;0.27;100.00
7297;BME280;40758;54.038;11.684;2022-12-19T11:26:31;101404.78;;;0.32;100.00
7297;BME280;40758;54.038;11.684;2022-12-19T11:29:34;101403.78;;;0.36;100.00
7297;BME280;40758;54.038;11.684;2022-12-19T11:32:33;101404.47;;;0.43;100.00
7297;BME280;40758;54.038;11.684;2022-12-19T11:35:21;101399.25;;;0.40;100.00
7297;BME280;40758;54.038;11.684;2022-12-19T11:38:05;101382.34;;;0.46;100.00
7297;BME280;40758;54.038;11.684;2022-12-19T11:40:50;101383.97;;;0.50;100.00
7297;BME280;40758;54.038;11.684;2022-12-19T11:43:40;101374.94;;;0.57;100.00
7297;BME280;40758;54.038;11.684;2022-12-19T11:46:30;101374.94;;;0.57;100.00
7297;BME280;40758;54.038;11.684;2022-12-19T11:49:10;101378.41;;;0.59;100.00
7297;BME280;40758;54.038;11.684;2022-12-19T11:51:54;101364.13;;;0.64;100.00
7297;BME280;40758;54.038;11.684;2022-12-19T11:54:33;101354.31;;;0.68;100.00
7297;BME280;40758;54.038;11.684;2022-12-19T11:57:10;101377.06;;;0.73;100.00
7297;BME280;40758;54.038;11.684;2022-12-19T11:59:46;101370.03;;;0.72;100.00
7297;BME280;40758;54.038;11.684;2022-12-19T12:03:08;101366.56;;;0.70;100.00
7297;BME280;40758;54.038;11.684;2022-12-19T12:05:50;101362.06;;;0.74;100.00
7297;BME280;40758;54.038;11.684;2022-12-19T12:09:04;101369.44;;;0.63;100.00
7297;BME280;40758;54.038;11.684;2022-12-19T12:12:21;101348.41;;;0.60;100.00
7297;BME280;40758;54.038;11.684;2022-12-19T12:15:39;101336.19;;;0.56;100.00
7297;BME280;40758;54.038;11.684;2022-12-19T12:18:54;101336.97;;;0.59;100.00
7297;BME280;40758;54.038;11.684;2022-12-19T12:22:04;101341.25;;;0.62;100.00
7297;BME280;40758;54.038;11.684;2022-12-19T12:25:22;101328.47;;;0.76;100.00
7297;BME280;40758;54.038;11.684;2022-12-19T12:29:02;101335.81;;;0.68;100.00
7297;BME280;40758;54.038;11.684;2022-12-19T12:32:15;101340.69;;;0.80;100.00
7297;BME280;40758;54.038;11.684;2022-12-19T12:35:34;101325.94;;;0.73;100.00
7297;BME280;40758;54.038;11.684;2022-12-19T12:39:00;101327.56;;;0.77;100.00
7297;BME280;40758;54.038;11.684;2022-12-19T12:41:45;101333.88;;;0.73;100.00
7297;BME280;40758;54.038;11.684;2022-12-19T12:44:40;101321.63;;;0.69;100.00
7297;BME280;40758;54.038;11.684;2022-12-19T12:47:17;101325.72;;;0.79;100.00
7297;BME280;40758;54.038;11.684;2022-12-19T12:50:11;101341.66;;;0.77;100.00
7297;BME280;40758;54.038;11.684;2022-12-19T12:52:59;101323.09;;;0.79;100.00
7297;BME280;40758;54.038;11.684;2022-12-19T12:55:34;101324.81;;;0.80;100.00
7297;BME280;40758;54.038;11.684;2022-12-19T12:59:05;101325.56;;;0.84;100.00
7297;BME280;40758;54.038;11.684;2022-12-19T13:01:49;101320.28;;;0.84;100.00
7297;BME280;40758;54.038;11.684;2022-12-19T13:04:40;101316.81;;;0.81;100.00
7297;BME280;40758;54.038;11.684;2022-12-19T13:07:28;101317.50;;;0.87;100.00
7297;BME280;40758;54.038;11.684;2022-12-19T13:10:17;101308.94;;;0.80;100.00
7297;BME280;40758;54.038;11.684;2022-12-19T13:13:04;101315.16;;;0.79;100.00
7297;BME280;40758;54.038;11.684;2022-12-19T13:15:43;101314.31;;;0.77;100.00
7297;BME280;40758;54.038;11.684;2022-12-19T13:18:35;101317.09;;;0.74;100.00
7297;BME280;40758;54.038;11.684;2022-12-19T13:21:17;101314.25;;;0.80;100.00
7297;BME280;40758;54.038;11.684;2022-12-19T13:24:20;101314.88;;;0.87;100.00
7297;BME280;40758;54.038;11.684;2022-12-19T13:26:50;101310.44;;;0.87;100.00
7297;BME280;40758;54.038;11.684;2022-12-19T13:30:02;101314.72;;;0.91;100.00
7297;BME280;40758;54.038;11.684;2022-12-19T13:33:10;101308.31;;;0.98;100.00
7297;BME280;40758;54.038;11.684;2022-12-19T13:35:41;101296.88;;;0.98;100.00
7297;BME280;40758;54.038;11.684;2022-12-19T13:38:29;101309.31;;;0.94;100.00
7297;BME280;40758;54.038;11.684;2022-12-19T13:41:27;101297.63;;;1.01;100.00
7297;BME280;40758;54.038;11.684;2022-12-19T13:44:18;101294.97;;;1.01;100.00
7297;BME280;40758;54.038;11.684;2022-12-19T13:46:58;101292.31;;;1.01;100.00
7297;BME280;40758;54.038;11.684;2022-12-19T13:49:31;101295.75;;;1.05;100.00
7297;BME280;40758;54.038;11.684;2022-12-19T13:52:10;101295.66;;;1.06;100.00